Time;durP1;ratioP1;P1;durP2;ratioP2;P2;SDS_P1;SDS_P2;PMS_P1;PMS_P2;Temp;Humidity;BMP_temperature;BMP_pressure;BME280_temperature;BME280_humidity;BME280_pressure;Samples;Min_cycle;Max_cycle;Signal;HPM_P1;HPM_P2
2023/03/06 00:00:34;;;;;;;15.65;12.93;;;;;;;7.41;100.00;99613.31;5032561;28;19917;-76
2023/03/06 00:03:00;;;;;;;15.95;13.23;;;;;;;7.44;100.00;99619.16;5034040;28;20037;-76
2023/03/06 00:05:26;;;;;;;19.25;13.25;;;;;;;7.54;100.00;99630.75;5033668;28;20033;-76
2023/03/06 00:07:51;;;;;;;18.83;13.23;;;;;;;7.34;100.00;99600.00;5032041;28;20038;-77
2023/03/06 00:10:25;;;;;;;18.90;14.32;;;;;;;7.11;100.00;99571.00;5033545;28;20120;-77
2023/03/06 00:12:52;;;;;;;19.70;14.98;;;;;;;7.38;100.00;99631.94;5032139;28;20033;-77
2023/03/06 00:15:18;;;;;;;18.05;14.13;;;;;;;7.52;100.00;99629.13;5032061;28;20439;-77
2023/03/06 00:17:43;;;;;;;19.17;13.95;;;;;;;7.51;100.00;99629.97;5031974;28;20029;-78
2023/03/06 00:20:10;;;;;;;18.60;14.20;;;;;;;7.48;100.00;99612.34;5033446;28;20052;-77
2023/03/06 00:22:36;;;;;;;17.40;13.80;;;;;;;7.40;100.00;99624.31;5033542;28;20041;-77
2023/03/06 00:25:01;;;;;;;17.13;12.88;;;;;;;7.45;100.00;99625.88;5032433;28;20439;-77
2023/03/06 00:27:27;;;;;;;17.38;12.70;;;;;;;7.42;100.00;99615.84;5033677;28;20022;-77
2023/03/06 00:29:56;;;;;;;17.33;12.95;;;;;;;7.19;100.00;99561.56;5032184;28;20025;-77
2023/03/06 00:32:23;;;;;;;19.05;13.63;;;;;;;7.38;100.00;99624.34;5031822;28;20039;-77
2023/03/06 00:34:49;;;;;;;17.50;13.27;;;;;;;7.25;100.00;99630.50;5033146;28;20037;-78
2023/03/06 00:37:15;;;;;;;18.17;13.32;;;;;;;7.06;100.00;99572.78;5033185;28;20461;-77
2023/03/06 00:39:40;;;;;;;19.00;13.32;;;;;;;7.36;100.00;99630.28;5032953;28;20049;-78
2023/03/06 00:42:06;;;;;;;18.25;13.10;;;;;;;7.26;100.00;99621.22;5033150;28;20503;-78
2023/03/06 00:44:31;;;;;;;18.98;12.88;;;;;;;6.90;100.00;99585.72;5031752;28;20041;-77
2023/03/06 00:46:56;;;;;;;18.52;12.63;;;;;;;7.31;100.00;99637.16;5031292;28;20132;-77
2023/03/06 00:49:22;;;;;;;17.58;13.85;;;;;;;6.77;100.00;99588.53;5032459;28;20041;-75
2023/03/06 00:51:47;;;;;;;18.05;12.85;;;;;;;6.88;100.00;99584.09;5033062;28;20088;-77
2023/03/06 00:54:13;;;;;;;20.42;13.32;;;;;;;7.36;100.00;99646.31;5032914;28;20086;-77
2023/03/06 00:56:38;;;;;;;18.38;13.93;;;;;;;7.11;100.00;99626.59;5041136;28;20033;-77
2023/03/06 00:59:03;;;;;;;16.58;12.95;;;;;;;6.79;100.00;99590.13;5051457;28;20029;-76
2023/03/06 01:01:29;;;;;;;17.42;12.85;;;;;;;7.29;100.00;99649.00;5052832;28;20021;-76
2023/03/06 01:03:54;;;;;;;16.63;12.57;;;;;;;6.76;100.00;99580.13;5052628;28;20424;-77
2023/03/06 01:06:20;;;;;;;16.45;12.90;;;;;;;7.10;100.00;99647.66;5052678;28;20423;-76
2023/03/06 01:08:45;;;;;;;16.83;12.57;;;;;;;6.84;100.00;99592.59;5052593;28;20098;-76
2023/03/06 01:11:11;;;;;;;19.95;13.70;;;;;;;6.93;100.00;99658.94;5052512;28;20043;-76
2023/03/06 01:13:36;;;;;;;19.58;13.50;;;;;;;7.06;100.00;99651.13;5052102;28;20037;-76
2023/03/06 01:16:10;;;;;;;18.25;13.57;;;;;;;6.69;100.00;99597.94;5052418;28;20067;-76
2023/03/06 01:18:36;;;;;;;20.48;13.75;;;;;;;7.10;100.00;99651.03;5051886;28;20507;-76
2023/03/06 01:21:04;;;;;;;20.45;14.68;;;;;;;6.69;100.00;99618.16;5051244;28;20044;-76
2023/03/06 01:23:29;;;;;;;22.27;15.15;;;;;;;6.87;100.00;99659.03;5051228;28;20029;-76
2023/03/06 01:25:55;;;;;;;18.00;13.70;;;;;;;7.19;100.00;99650.03;5050527;28;20036;-75
2023/03/06 01:28:20;;;;;;;18.95;14.50;;;;;;;7.31;100.00;99664.97;5050661;28;20376;-76
2023/03/06 01:30:46;;;;;;;21.65;15.82;;;;;;;6.66;100.00;99603.88;5052102;28;20075;-77
2023/03/06 01:33:11;;;;;;;28.63;19.45;;;;;;;6.66;100.00;99616.50;5051995;28;20116;-77
2023/03/06 01:35:38;;;;;;;25.52;18.17;;;;;;;7.00;100.00;99664.72;5051212;28;20122;-78
2023/03/06 01:38:03;;;;;;;40.97;24.60;;;;;;;6.45;100.00;99669.91;5050869;28;20481;-77
2023/03/06 01:40:35;;;;;;;26.13;17.95;;;;;;;5.84;100.00;99593.50;5050089;28;20053;-76
2023/03/06 01:43:25;;;;;;;23.05;17.33;;;;;;;6.37;100.00;99649.00;5051571;28;20040;-77
2023/03/06 01:45:50;;;;;;;29.95;21.02;;;;;;;6.20;100.00;99661.03;5052153;28;20127;-78
2023/03/06 01:48:18;;;;;;;23.50;16.90;;;;;;;6.11;100.00;99582.97;5051934;28;20542;-79
2023/03/06 01:50:44;;;;;;;40.92;23.55;;;;;;;6.36;100.00;99636.41;5051952;28;20122;-78
2023/03/06 01:53:11;;;;;;;50.35;32.60;;;;;;;6.07;100.00;99596.50;5051837;28;20033;-79
2023/03/06 01:55:36;;;;;;;88.53;69.35;;;;;;;5.91;100.00;99572.38;5050537;28;20032;-78
2023/03/06 01:58:06;;;;;;;99.72;82.10;;;;;;;6.09;100.00;99635.16;5051455;28;20033;-78
2023/03/06 02:00:33;;;;;;;93.97;78.60;;;;;;;6.26;100.00;99622.28;5051245;28;20052;-77
2023/03/06 02:03:06;;;;;;;110.93;92.93;;;;;;;6.06;100.00;99630.16;5050631;28;20096;-75
2023/03/06 02:05:32;;;;;;;110.82;92.97;;;;;;;6.11;100.00;99614.09;5051569;28;20041;-76
2023/03/06 02:07:59;;;;;;;109.10;93.28;;;;;;;6.07;100.00;99604.06;5050366;28;20119;-76
2023/03/06 02:10:25;;;;;;;102.40;84.68;;;;;;;5.55;100.00;99552.72;5050650;28;20060;-78
2023/03/06 02:12:51;;;;;;;103.90;88.72;;;;;;;5.56;100.00;99536.75;5051784;28;20479;-78
2023/03/06 02:15:19;;;;;;;83.75;70.65;;;;;;;6.11;100.00;99598.13;5050126;28;20404;-76
2023/03/06 02:17:46;;;;;;;83.10;68.10;;;;;;;6.09;100.00;99598.16;5051786;28;20033;-76
2023/03/06 02:20:15;;;;;;;55.47;43.42;;;;;;;6.11;100.00;99593.06;5051753;28;20110;-77
2023/03/06 02:23:06;;;;;;;47.20;35.58;;;;;;;6.33;100.00;99596.91;5050369;28;20472;-77
2023/03/06 02:25:41;;;;;;;25.98;20.35;;;;;;;6.30;100.00;99601.19;5051417;28;20166;-75
2023/03/06 02:28:11;;;;;;;22.58;14.90;;;;;;;6.59;100.00;99596.44;5051470;28;20075;-78
2023/03/06 02:30:36;;;;;;;19.88;14.32;;;;;;;6.55;100.00;99595.69;5052385;28;20044;-77
2023/03/06 02:33:03;;;;;;;18.35;13.88;;;;;;;6.64;100.00;99607.28;5054333;28;20032;-77
2023/03/06 02:35:31;;;;;;;21.80;13.88;;;;;;;6.55;100.00;99600.72;5055690;28;20036;-77
2023/03/06 02:38:02;;;;;;;19.13;13.90;;;;;;;6.41;100.00;99547.13;5053952;28;20637;-76
2023/03/06 02:40:27;;;;;;;18.35;14.02;;;;;;;6.79;100.00;99599.44;5054811;28;20109;-76
2023/03/06 02:42:55;;;;;;;19.00;14.13;;;;;;;6.51;100.00;99556.19;5054683;28;20115;-77
2023/03/06 02:45:30;;;;;;;16.20;12.85;;;;;;;6.38;100.00;99557.25;5054441;28;20060;-78
2023/03/06 02:47:56;;;;;;;16.55;12.77;;;;;;;6.43;100.00;99540.34;5040317;28;20492;-78
2023/03/06 02:50:21;;;;;;;17.52;11.88;;;;;;;6.61;100.00;99590.50;5034089;28;20035;-78
2023/03/06 02:52:47;;;;;;;16.48;11.55;;;;;;;6.60;100.00;99598.94;5033741;28;20040;-79
2023/03/06 02:55:14;;;;;;;16.08;11.00;;;;;;;6.24;100.00;99541.53;5035002;28;20013;-78
2023/03/06 02:57:40;;;;;;;16.65;11.52;;;;;;;6.57;100.00;99618.38;5041781;28;20136;-77
2023/03/06 03:00:08;;;;;;;15.32;11.68;;;;;;;6.69;100.00;99626.56;5034373;28;20555;-78
2023/03/06 03:02:33;;;;;;;16.83;12.10;;;;;;;6.78;100.00;99613.75;5034510;28;20033;-77
2023/03/06 03:04:59;;;;;;;16.65;11.60;;;;;;;6.38;100.00;99557.25;5034473;28;20184;-77
2023/03/06 03:07:24;;;;;;;14.35;10.63;;;;;;;6.44;100.00;99568.97;5033124;28;20036;-78
2023/03/06 03:09:50;;;;;;;15.32;11.48;;;;;;;6.75;100.00;99623.09;5033500;28;20125;-77
2023/03/06 03:12:15;;;;;;;14.55;11.13;;;;;;;6.68;100.00;99624.03;5033597;28;20071;-78
2023/03/06 03:14:40;;;;;;;15.55;10.98;;;;;;;6.65;100.00;99626.63;5034366;28;20116;-78
2023/03/06 03:17:06;;;;;;;15.65;11.23;;;;;;;6.71;100.00;99640.00;5033345;28;20535;-77
2023/03/06 03:19:31;;;;;;;15.02;11.18;;;;;;;6.46;100.00;99585.72;5034140;28;20053;-77
2023/03/06 03:21:57;;;;;;;16.30;11.60;;;;;;;6.47;100.00;99621.91;5034292;28;20526;-77
2023/03/06 03:24:23;;;;;;;15.70;11.23;;;;;;;6.28;100.00;99570.09;5033538;28;20030;-78
2023/03/06 03:26:49;;;;;;;18.58;12.02;;;;;;;6.72;100.00;99639.13;5034905;28;20071;-78
2023/03/06 03:29:14;;;;;;;14.55;11.48;;;;;;;6.34;100.00;99585.13;5033942;28;20199;-78
2023/03/06 03:31:39;;;;;;;15.30;11.50;;;;;;;6.33;100.00;99631.41;5032379;28;20080;-77
2023/03/06 03:34:05;;;;;;;16.38;11.88;;;;;;;6.59;100.00;99642.72;5038264;28;20024;-77
2023/03/06 03:36:30;;;;;;;16.98;12.23;;;;;;;6.19;100.00;99608.06;5042332;28;20112;-77
2023/03/06 03:38:56;;;;;;;16.02;11.30;;;;;;;6.71;100.00;99637.47;5034307;28;20057;-77
2023/03/06 03:41:22;;;;;;;14.10;11.27;;;;;;;6.33;100.00;99604.47;5034325;28;20475;-78
2023/03/06 03:43:47;;;;;;;17.08;11.50;;;;;;;6.71;100.00;99646.72;5034073;28;20068;-78
2023/03/06 03:46:13;;;;;;;15.27;11.02;;;;;;;6.54;100.00;99646.16;5034074;28;20026;-78
2023/03/06 03:48:38;;;;;;;17.33;11.80;;;;;;;6.41;100.00;99584.16;5033680;28;20424;-77
2023/03/06 03:51:12;;;;;;;16.40;11.02;;;;;;;6.36;100.00;99608.66;5032794;28;20037;-78
2023/03/06 03:53:37;;;;;;;15.40;11.13;;;;;;;6.63;100.00;99638.47;5033900;28;20044;-76
2023/03/06 03:56:03;;;;;;;16.52;11.77;;;;;;;6.43;100.00;99648.06;5033981;28;20399;-79
2023/03/06 03:58:28;;;;;;;17.98;12.80;;;;;;;6.58;100.00;99661.25;5034228;28;20026;-80
2023/03/06 04:00:54;;;;;;;16.52;11.88;;;;;;;6.53;100.00;99673.13;5033881;28;20041;-77
2023/03/06 04:03:19;;;;;;;14.38;11.77;;;;;;;6.50;100.00;99664.75;5032412;28;20033;-79
2023/03/06 04:05:45;;;;;;;17.00;11.45;;;;;;;6.55;100.00;99625.13;5032093;28;20530;-78
2023/03/06 04:08:10;;;;;;;17.00;12.50;;;;;;;6.43;100.00;99665.72;5037387;28;20456;-77
2023/03/06 04:10:38;;;;;;;14.25;11.60;;;;;;;5.99;100.00;99605.88;5033034;28;20038;-77
2023/03/06 04:13:04;;;;;;;17.10;13.20;;;;;;;6.04;100.00;99673.06;5033069;28;20067;-78
2023/03/06 04:15:29;;;;;;;20.63;14.52;;;;;;;6.31;100.00;99664.25;5032662;28;20029;-81
2023/03/06 04:17:55;;;;;;;18.65;13.23;;;;;;;5.97;100.00;99610.09;5022913;28;20034;-79
2023/03/06 04:20:20;;;;;;;15.52;10.93;;;;;;;6.21;100.00;99661.88;5012795;28;20420;-80
2023/03/06 04:22:46;;;;;;;15.65;10.93;;;;;;;5.77;100.00;99591.88;5050835;28;20462;-82
2023/03/06 04:25:11;;;;;;;15.43;10.95;;;;;;;6.31;100.00;99659.19;5042207;28;20491;-80
2023/03/06 04:27:37;;;;;;;16.33;11.43;;;;;;;5.93;100.00;99611.00;5052892;28;20025;-79
2023/03/06 04:30:03;;;;;;;15.07;11.10;;;;;;;5.83;100.00;99610.31;5053292;28;20029;-80
2023/03/06 04:32:29;;;;;;;15.15;11.40;;;;;;;5.96;100.00;99671.53;5030018;28;20048;-79
2023/03/06 04:34:54;;;;;;;17.42;11.07;;;;;;;7.40;100.00;99674.88;5012650;28;20104;-80
2023/03/06 04:37:23;;;;;;;16.83;11.38;;;;;;;6.44;100.00;99644.69;5012606;28;20479;-76
2023/03/06 04:39:49;;;;;;;15.35;11.85;;;;;;;6.02;100.00;99677.28;5011034;28;20053;-76
2023/03/06 04:42:14;;;;;;;17.17;11.85;;;;;;;5.50;100.00;99625.06;5028443;28;20030;-74
2023/03/06 04:44:40;;;;;;;17.23;11.90;;;;;;;5.46;100.00;99624.28;5032107;28;20048;-79
2023/03/06 04:47:06;;;;;;;17.73;11.32;;;;;;;5.95;100.00;99677.41;5031672;28;20037;-78
2023/03/06 04:49:31;;;;;;;17.02;12.70;;;;;;;5.92;100.00;99685.84;5030699;28;20244;-75
2023/03/06 04:51:56;;;;;;;16.73;12.00;;;;;;;5.96;100.00;99706.84;5032079;28;20021;-74
2023/03/06 04:54:22;;;;;;;17.02;11.85;;;;;;;5.58;100.00;99628.31;5030597;28;20034;-75
2023/03/06 04:56:47;;;;;;;17.33;12.60;;;;;;;6.25;100.00;99702.19;5032091;28;20404;-76
2023/03/06 04:59:13;;;;;;;18.80;11.98;;;;;;;6.15;100.00;99715.81;5030305;28;20030;-74
2023/03/06 05:01:38;;;;;;;16.77;11.90;;;;;;;5.91;100.00;99716.13;5031842;28;20033;-73
2023/03/06 05:04:04;;;;;;;18.05;12.60;;;;;;;5.79;100.00;99718.78;5030135;28;20033;-73
2023/03/06 05:06:29;;;;;;;15.48;12.02;;;;;;;5.71;100.00;99668.47;5047131;28;20030;-80
2023/03/06 05:08:55;;;;;;;17.23;12.63;;;;;;;5.48;100.00;99674.66;5032147;28;20033;-74
2023/03/06 05:11:20;;;;;;;16.83;11.70;;;;;;;6.08;100.00;99725.13;5030364;28;20049;-74
2023/03/06 05:13:46;;;;;;;19.85;13.30;;;;;;;5.84;100.00;99669.16;5029731;28;20120;-73
2023/03/06 05:16:12;;;;;;;19.42;13.52;;;;;;;5.68;100.00;99702.97;5030288;28;20116;-72
2023/03/06 05:18:37;;;;;;;23.63;15.25;;;;;;;5.60;100.00;99685.44;5028186;28;20022;-73
2023/03/06 05:21:04;;;;;;;30.80;19.65;;;;;;;5.91;100.00;99673.25;5031316;28;20049;-77
2023/03/06 05:23:31;;;;;;;28.40;19.30;;;;;;;6.00;100.00;99683.25;5030116;28;20026;-76
2023/03/06 05:25:57;;;;;;;32.20;22.73;;;;;;;5.92;100.00;99688.38;5038497;28;20061;-76
2023/03/06 05:28:24;;;;;;;42.63;29.38;;;;;;;6.29;100.00;99726.53;5031752;28;20460;-75
2023/03/06 05:30:51;;;;;;;40.00;29.50;;;;;;;5.91;100.00;99738.84;5019907;28;20076;-75
2023/03/06 05:33:16;;;;;;;33.80;24.20;;;;;;;6.24;100.00;99738.38;5010559;28;20034;-76
2023/03/06 05:35:46;;;;;;;40.88;28.33;;;;;;;6.25;100.00;99747.63;5012133;28;20036;-77
2023/03/06 05:38:12;;;;;;;34.70;23.45;;;;;;;6.53;100.00;99692.50;5011033;28;20033;-76
2023/03/06 05:40:41;;;;;;;41.10;25.33;;;;;;;8.72;100.00;99757.16;5010603;28;20441;-79
2023/03/06 05:43:07;;;;;;;47.10;30.27;;;;;;;8.96;100.00;99699.94;5011324;28;20034;-76
2023/03/06 05:45:34;;;;;;;55.83;27.65;;;;;;;10.60;100.00;99686.66;5048645;28;20093;-75
2023/03/06 05:47:59;;;;;;;42.83;26.75;;;;;;;11.26;100.00;99758.97;5040284;28;20512;-74
2023/03/06 05:50:25;;;;;;;47.22;29.00;;;;;;;10.71;100.00;99764.22;5030133;28;20120;-75
2023/03/06 05:52:51;;;;;;;46.63;30.17;;;;;;;9.78;100.00;99780.56;5031232;28;20112;-75
2023/03/06 05:55:18;;;;;;;56.15;36.08;;;;;;;8.41;100.00;99782.38;5030366;28;20112;-74
2023/03/06 05:57:44;;;;;;;62.17;34.63;;;;;;;7.90;100.00;99791.06;5031062;28;20091;-74
2023/03/06 06:00:11;;;;;;;58.53;35.90;;;;;;;7.38;100.00;99752.47;5030753;28;20045;-75
2023/03/06 06:02:36;;;;;;;65.03;42.50;;;;;;;6.78;100.00;99699.63;5029381;28;20099;-74
2023/03/06 06:05:02;;;;;;;49.28;35.92;;;;;;;7.26;100.00;99742.56;5029878;28;20484;-74
2023/03/06 06:07:27;;;;;;;56.90;41.70;;;;;;;7.96;100.00;99750.44;5034720;28;20043;-74
2023/03/06 06:09:53;;;;;;;54.20;38.83;;;;;;;7.12;100.00;99749.56;5035185;28;20478;-74
2023/03/06 06:12:18;;;;;;;38.88;28.40;;;;;;;7.95;100.00;99837.34;5034808;28;20033;-75
2023/03/06 06:14:44;;;;;;;37.22;27.98;;;;;;;7.88;100.00;99816.38;5034078;28;20033;-75
2023/03/06 06:17:11;;;;;;;36.15;26.02;;;;;;;7.42;100.00;99749.00;5033664;28;20916;-75
2023/03/06 06:19:37;;;;;;;47.75;29.70;;;;;;;7.21;100.00;99797.44;5035057;28;20124;-75
2023/03/06 06:22:03;;;;;;;33.78;24.52;;;;;;;7.26;100.00;99788.06;5035110;28;20098;-74
2023/03/06 06:24:30;;;;;;;33.53;24.55;;;;;;;7.82;100.00;99838.47;5034686;28;20067;-74
2023/03/06 06:26:57;;;;;;;30.20;22.92;;;;;;;7.42;100.00;99799.59;5035183;28;20088;-75
2023/03/06 06:29:23;;;;;;;32.83;23.70;;;;;;;7.42;100.00;99840.88;5033881;28;20034;-73
2023/03/06 06:31:50;;;;;;;31.00;22.15;;;;;;;7.07;100.00;99855.81;5033969;28;20033;-74
2023/03/06 06:34:15;;;;;;;30.17;22.13;;;;;;;8.45;100.00;99841.41;5034961;28;20033;-75
2023/03/06 06:36:41;;;;;;;30.25;23.23;;;;;;;8.68;100.00;99842.56;5035048;28;20112;-75
2023/03/06 06:39:07;;;;;;;28.25;20.13;;;;;;;8.96;100.00;99842.75;5033220;28;20045;-75
2023/03/06 06:41:34;;;;;;;31.75;23.48;;;;;;;8.86;100.00;99837.94;5034849;28;20044;-76
2023/03/06 06:44:00;;;;;;;35.05;25.00;;;;;;;8.87;100.00;99850.59;5034126;28;20059;-75
2023/03/06 06:46:26;;;;;;;46.58;35.20;;;;;;;9.01;100.00;99728.56;5034495;28;20036;-74
2023/03/06 06:48:55;;;;;;;35.65;26.55;;;;;;;9.43;100.00;99833.97;5034143;28;20056;-75
2023/03/06 06:51:22;;;;;;;34.58;25.45;;;;;;;8.49;100.00;99812.59;5034861;28;20033;-75
2023/03/06 06:53:50;;;;;;;29.13;22.60;;;;;;;9.18;100.00;99808.41;5033322;28;20041;-76
2023/03/06 06:56:16;;;;;;;30.38;21.23;;;;;;;9.89;100.00;99839.50;5034640;28;20083;-75
2023/03/06 06:58:41;;;;;;;40.25;26.60;;;;;;;9.89;100.00;99853.88;5034334;28;20115;-74
2023/03/06 07:01:09;;;;;;;34.70;25.77;;;;;;;9.56;100.00;99794.72;5032812;28;20492;-75
2023/03/06 07:03:35;;;;;;;35.08;24.67;;;;;;;8.75;100.00;99797.66;5034123;28;20034;-76
2023/03/06 07:06:00;;;;;;;30.55;22.35;;;;;;;10.05;100.00;99863.59;5033158;28;20033;-77
2023/03/06 07:08:26;;;;;;;29.33;21.92;;;;;;;10.31;100.00;99814.59;5034444;28;20033;-75
2023/03/06 07:10:51;;;;;;;30.27;20.50;;;;;;;10.22;100.00;99853.00;5032738;28;20045;-75
2023/03/06 07:13:17;;;;;;;24.70;17.77;;;;;;;10.73;100.00;99807.41;5033611;28;20041;-75
2023/03/06 07:15:42;;;;;;;30.02;22.63;;;;;;;10.93;100.00;99808.44;5032987;28;20041;-75
2023/03/06 07:18:08;;;;;;;24.00;18.05;;;;;;;11.01;100.00;99851.44;5033303;28;20021;-76
2023/03/06 07:20:33;;;;;;;35.67;25.98;;;;;;;10.74;100.00;99814.97;5033092;28;20116;-75
2023/03/06 07:22:59;;;;;;;27.60;21.88;;;;;;;10.48;100.00;99798.88;5032974;28;20496;-76
2023/03/06 07:25:24;;;;;;;24.00;19.58;;;;;;;10.29;100.00;99804.50;5033971;28;20034;-75
2023/03/06 07:27:52;;;;;;;30.35;23.40;;;;;;;11.10;100.00;99818.03;5033114;28;20145;-75
2023/03/06 07:30:17;;;;;;;23.65;16.67;;;;;;;10.86;100.00;99819.66;5033129;28;20039;-74
2023/03/06 07:32:43;;;;;;;22.77;17.40;;;;;;;10.65;100.00;99773.75;5033336;28;20229;-74
2023/03/06 07:35:12;;;;;;;22.25;17.05;;;;;;;11.33;100.00;99818.94;5032497;28;20033;-74
2023/03/06 07:37:37;;;;;;;21.65;17.30;;;;;;;11.49;100.00;99809.06;5032450;28;20025;-74
2023/03/06 07:40:04;;;;;;;28.65;19.88;;;;;;;11.53;100.00;99856.44;5031915;28;20056;-75
2023/03/06 07:42:30;;;;;;;23.58;17.73;;;;;;;11.29;100.00;99821.63;5032052;28;20036;-75
2023/03/06 07:44:55;;;;;;;22.38;15.77;;;;;;;10.55;100.00;99813.03;5033841;28;20021;-75
2023/03/06 07:47:21;;;;;;;21.08;16.20;;;;;;;12.14;100.00;99868.75;5033803;28;20033;-75
2023/03/06 07:49:46;;;;;;;20.77;16.38;;;;;;;10.69;100.00;99824.47;5031651;28;20090;-74
2023/03/06 07:52:12;;;;;;;20.92;16.80;;;;;;;10.74;100.00;99832.75;5033100;28;20040;-75
2023/03/06 07:54:38;;;;;;;22.08;17.10;;;;;;;11.74;100.00;99885.50;5032137;28;20025;-75
2023/03/06 07:57:03;;;;;;;21.80;15.85;;;;;;;11.71;100.00;99866.03;5032372;28;20099;-75
2023/03/06 07:59:28;;;;;;;16.83;13.70;;;;;;;11.45;100.00;99883.88;5033445;28;20037;-75
2023/03/06 08:01:54;;;;;;;18.38;13.35;;;;;;;10.83;100.00;99842.66;5033436;28;20040;-75
2023/03/06 08:04:20;;;;;;;20.17;14.15;;;;;;;11.42;100.00;99839.88;5032032;28;20084;-79
2023/03/06 08:06:46;;;;;;;18.17;13.75;;;;;;;12.43;100.00;99885.53;5032454;28;20247;-78
2023/03/06 08:09:11;;;;;;;17.67;13.52;;;;;;;11.23;100.00;99891.38;5033025;28;20123;-79
2023/03/06 08:11:36;;;;;;;18.23;13.00;;;;;;;12.40;100.00;99882.28;5033122;28;20037;-75
2023/03/06 08:14:02;;;;;;;15.05;11.77;;;;;;;12.10;100.00;99839.16;5032901;28;20037;-76
2023/03/06 08:16:28;;;;;;;17.50;13.13;;;;;;;12.31;100.00;99891.06;5031782;28;20060;-76
2023/03/06 08:18:55;;;;;;;16.98;12.02;;;;;;;12.01;100.00;99846.31;5032888;28;20091;-76
2023/03/06 08:21:24;;;;;;;15.68;12.90;;;;;;;11.26;100.00;99809.88;5032116;28;20156;-82
2023/03/06 08:23:50;;;;;;;16.17;12.10;;;;;;;11.51;100.00;99913.41;5031921;28;20040;-81
2023/03/06 08:26:18;;;;;;;18.17;12.13;;;;;;;11.42;100.00;99863.63;5031979;28;20044;-77
2023/03/06 08:28:44;;;;;;;17.88;13.05;;;;;;;11.98;100.00;99905.84;5032648;28;20033;-78
2023/03/06 08:31:23;;;;;;;15.07;12.73;;;;;;;12.33;100.00;99847.69;5031353;28;20079;-78
2023/03/06 08:33:49;;;;;;;16.83;11.88;;;;;;;12.12;100.00;99911.28;5032012;28;20484;-76
2023/03/06 08:36:14;;;;;;;17.80;12.38;;;;;;;11.75;100.00;99908.34;5031083;28;20037;-77
2023/03/06 08:38:40;;;;;;;15.50;12.40;;;;;;;12.77;100.00;99915.69;5031144;28;20152;-77
2023/03/06 08:41:05;;;;;;;16.92;12.38;;;;;;;11.97;100.00;99905.91;5032176;28;20547;-77
2023/03/06 08:43:31;;;;;;;16.55;11.90;;;;;;;12.22;100.00;99918.63;5030447;28;20412;-76
2023/03/06 08:45:57;;;;;;;22.58;12.57;;;;;;;12.71;100.00;99908.28;5030994;28;20025;-76
2023/03/06 08:48:23;;;;;;;16.33;12.45;;;;;;;12.24;100.00;99921.94;5031945;28;20037;-76
2023/03/06 08:50:49;;;;;;;20.88;14.95;;;;;;;11.51;100.00;99915.97;5031154;28;20040;-76
2023/03/06 08:53:15;;;;;;;20.75;15.68;;;;;;;12.92;100.00;99913.41;5032203;28;20033;-77
2023/03/06 08:55:40;;;;;;;26.05;19.73;;;;;;;11.42;100.00;99927.25;5031217;28;20377;-79
2023/03/06 08:58:06;;;;;;;20.65;12.65;;;;;;;11.54;100.00;99887.84;5032544;28;20040;-78
2023/03/06 09:00:32;;;;;;;16.60;12.65;;;;;;;12.55;100.00;99859.56;5031097;28;20519;-77
2023/03/06 09:02:57;;;;;;;19.33;14.90;;;;;;;13.07;100.00;99911.16;5031397;28;20033;-78
2023/03/06 09:05:23;;;;;;;21.58;15.38;;;;;;;12.74;100.00;99903.88;5032157;28;20187;-79
2023/03/06 09:07:48;;;;;;;21.83;15.15;;;;;;;11.84;100.00;99831.66;5031281;28;20124;-78
2023/03/06 09:10:16;;;;;;;23.20;16.85;;;;;;;11.40;100.00;99865.38;5031533;28;20033;-79
2023/03/06 09:12:42;;;;;;;23.73;17.50;;;;;;;12.43;100.00;99912.75;5032516;28;20427;-78
2023/03/06 09:15:08;;;;;;;19.48;14.73;;;;;;;11.84;100.00;99858.81;5030621;28;20029;-78
2023/03/06 09:17:34;;;;;;;21.42;14.68;;;;;;;12.15;100.00;99905.25;5030922;28;20060;-79
2023/03/06 09:19:59;;;;;;;24.08;17.98;;;;;;;12.43;100.00;99912.75;5031270;28;20471;-76
2023/03/06 09:22:25;;;;;;;38.55;25.10;;;;;;;11.91;100.00;99903.56;5031898;28;20037;-75
2023/03/06 09:24:51;;;;;;;19.52;13.95;;;;;;;11.98;100.00;99856.63;5031804;28;20424;-74
2023/03/06 09:27:17;;;;;;;18.35;14.27;;;;;;;11.82;100.00;99906.44;5031765;28;20079;-74
2023/03/06 09:29:42;;;;;;;19.80;14.70;;;;;;;13.02;100.00;99838.16;5031756;28;20029;-74
2023/03/06 09:32:08;;;;;;;24.63;15.40;;;;;;;12.25;100.00;99863.25;5030603;28;20109;-74
2023/03/06 09:34:33;;;;;;;17.75;13.30;;;;;;;12.74;100.00;99829.06;5030135;28;20033;-74
2023/03/06 09:37:01;;;;;;;37.78;21.95;;;;;;;12.84;100.00;99909.47;5031461;28;20513;-74
2023/03/06 09:39:27;;;;;;;26.10;15.55;;;;;;;13.38;100.00;99840.94;5029696;28;20076;-73
2023/03/06 09:41:52;;;;;;;47.70;25.95;;;;;;;12.75;100.00;99890.25;5030309;28;20061;-75
2023/03/06 09:44:21;;;;;;;17.00;12.07;;;;;;;13.22;100.00;99862.88;5031632;28;20030;-75
2023/03/06 09:46:52;;;;;;;22.63;14.40;;;;;;;14.12;100.00;99905.91;5031735;28;20030;-75
2023/03/06 09:49:37;;;;;;;36.28;20.00;;;;;;;14.34;100.00;99899.81;5030660;28;20033;-74
2023/03/06 09:52:06;;;;;;;40.38;21.17;;;;;;;12.92;100.00;99898.09;5030364;28;20510;-73
2023/03/06 09:54:43;;;;;;;26.95;17.92;;;;;;;14.41;100.00;99838.97;5029974;28;20044;-74
2023/03/06 09:57:20;;;;;;;19.05;13.73;;;;;;;13.67;100.00;99834.59;5031557;28;20030;-74
2023/03/06 09:59:49;;;;;;;16.67;11.88;;;;;;;12.55;100.00;99897.81;5026264;28;20092;-76
2023/03/06 10:02:23;;;;;;;16.15;11.60;;;;;;;12.81;100.00;99889.19;5030888;28;20044;-75
2023/03/06 10:04:53;;;;;;;17.00;11.75;;;;;;;12.52;100.00;99843.56;5031445;28;20087;-76
2023/03/06 10:07:27;;;;;;;14.20;11.77;;;;;;;12.59;100.00;99883.25;5031440;28;20478;-73
2023/03/06 10:09:59;;;;;;;17.65;12.13;;;;;;;13.78;100.00;99828.16;5030137;28;20026;-75
2023/03/06 10:12:28;;;;;;;16.90;12.82;;;;;;;14.63;100.00;99883.16;5031020;28;20033;-72
2023/03/06 10:14:56;;;;;;;15.13;11.30;;;;;;;14.02;100.00;99886.75;5030917;28;20040;-73
2023/03/06 10:17:25;;;;;;;16.98;11.48;;;;;;;13.11;100.00;99844.63;5031218;28;20030;-74
2023/03/06 10:19:51;;;;;;;15.15;10.95;;;;;;;13.33;100.00;99882.88;5031232;28;20476;-73
2023/03/06 10:22:29;;;;;;;13.63;10.75;;;;;;;14.57;100.00;99866.34;5029771;28;20033;-73
2023/03/06 10:25:28;;;;;;;15.13;11.10;;;;;;;14.27;100.00;99882.22;5029837;28;20044;-73
2023/03/06 10:28:03;;;;;;;15.93;11.45;;;;;;;13.25;100.00;99867.84;5010258;28;20069;-74
2023/03/06 10:30:52;;;;;;;14.65;11.52;;;;;;;14.82;100.00;99870.31;5022781;28;20034;-72
2023/03/06 10:33:40;;;;;;;17.42;11.48;;;;;;;14.73;100.00;99861.34;5028201;28;20629;-74
2023/03/06 10:36:09;;;;;;;15.43;11.15;;;;;;;14.49;100.00;99859.91;5024494;28;20033;-72
2023/03/06 10:38:36;;;;;;;15.30;11.55;;;;;;;14.76;100.00;99858.63;5028481;28;20512;-72
2023/03/06 10:41:20;;;;;;;16.80;11.50;;;;;;;15.14;100.00;99856.81;5019633;28;20111;-74
2023/03/06 10:44:03;;;;;;;14.43;11.02;;;;;;;14.65;100.00;99861.72;5009869;28;20061;-70
2023/03/06 10:46:36;;;;;;;15.40;11.50;;;;;;;13.79;100.00;99867.28;5020305;28;20492;-75
2023/03/06 10:49:24;;;;;;;13.63;11.38;;;;;;;13.74;100.00;99795.13;5030932;28;20124;-73
2023/03/06 10:52:13;;;;;;;17.67;11.55;;;;;;;14.67;100.00;99848.84;5031703;28;20033;-75
2023/03/06 10:54:41;;;;;;;23.17;17.45;;;;;;;15.56;100.00;99831.66;5023698;28;20049;-76
2023/03/06 10:57:26;;;;;;;16.65;13.27;;;;;;;13.89;100.00;99837.88;5032721;28;20036;-75
2023/03/06 10:59:57;;;;;;;14.90;12.38;;;;;;;14.80;100.00;99829.44;5032713;28;20045;-75
2023/03/06 11:02:27;;;;;;;20.63;13.93;;;;;;;15.46;100.00;99813.38;5034488;28;20100;-74
2023/03/06 11:04:55;;;;;;;16.20;12.77;;;;;;;15.49;100.00;99810.66;5033032;28;20086;-75
2023/03/06 11:07:25;;;;;;;18.20;13.30;;;;;;;15.66;100.00;99807.22;5034345;28;20036;-75
2023/03/06 11:09:56;;;;;;;15.40;11.52;;;;;;;15.31;100.00;99805.59;5033992;28;20389;-75
2023/03/06 11:12:26;;;;;;;14.95;11.98;;;;;;;15.51;100.00;99803.72;5032876;28;20060;-74
2023/03/06 11:15:11;;;;;;;15.93;12.25;;;;;;;13.78;100.00;99817.09;5033056;28;20040;-75